sensor_id;sensor_type;location;lat;lon;timestamp;P1;durP1;ratioP1;P2;durP2;ratioP2
70369;SDS011;57790;51.356;-2.906;2023-02-18T00:01:46;6.43;;;0.73;;
70369;SDS011;57790;51.356;-2.906;2023-02-18T00:04:46;4.10;;;0.60;;
70369;SDS011;57790;51.356;-2.906;2023-02-18T00:07:47;4.57;;;1.30;;
70369;SDS011;57790;51.356;-2.906;2023-02-18T00:10:47;3.67;;;0.60;;
70369;SDS011;57790;51.356;-2.906;2023-02-18T00:13:49;4.83;;;0.70;;
70369;SDS011;57790;51.356;-2.906;2023-02-18T00:16:50;6.63;;;0.80;;
70369;SDS011;57790;51.356;-2.906;2023-02-18T00:19:51;5.80;;;0.93;;
70369;SDS011;57790;51.356;-2.906;2023-02-18T00:22:51;4.60;;;0.60;;
70369;SDS011;57790;51.356;-2.906;2023-02-18T00:25:59;6.37;;;0.87;;
70369;SDS011;57790;51.356;-2.906;2023-02-18T00:29:00;5.93;;;0.80;;
70369;SDS011;57790;51.356;-2.906;2023-02-18T00:32:01;8.73;;;1.10;;
70369;SDS011;57790;51.356;-2.906;2023-02-18T00:35:01;6.80;;;0.73;;
70369;SDS011;57790;51.356;-2.906;2023-02-18T00:38:02;9.75;;;0.85;;
70369;SDS011;57790;51.356;-2.906;2023-02-18T00:41:03;8.83;;;0.70;;
70369;SDS011;57790;51.356;-2.906;2023-02-18T00:44:04;6.82;;;0.75;;
70369;SDS011;57790;51.356;-2.906;2023-02-18T00:47:05;7.00;;;0.93;;
70369;SDS011;57790;51.356;-2.906;2023-02-18T00:50:06;6.93;;;0.90;;
70369;SDS011;57790;51.356;-2.906;2023-02-18T00:53:07;6.60;;;0.90;;
70369;SDS011;57790;51.356;-2.906;2023-02-18T00:56:08;8.53;;;0.80;;
70369;SDS011;57790;51.356;-2.906;2023-02-18T00:59:08;5.23;;;0.60;;
70369;SDS011;57790;51.356;-2.906;2023-02-18T01:02:09;6.70;;;0.75;;
70369;SDS011;57790;51.356;-2.906;2023-02-18T01:05:09;9.93;;;0.97;;
70369;SDS011;57790;51.356;-2.906;2023-02-18T01:08:10;6.43;;;0.80;;
70369;SDS011;57790;51.356;-2.906;2023-02-18T01:11:11;6.85;;;0.80;;
70369;SDS011;57790;51.356;-2.906;2023-02-18T01:14:12;7.17;;;1.00;;
70369;SDS011;57790;51.356;-2.906;2023-02-18T01:17:12;5.53;;;0.70;;
70369;SDS011;57790;51.356;-2.906;2023-02-18T01:20:13;3.57;;;0.60;;
70369;SDS011;57790;51.356;-2.906;2023-02-18T01:23:14;9.65;;;1.02;;
70369;SDS011;57790;51.356;-2.906;2023-02-18T01:26:15;4.17;;;0.60;;
70369;SDS011;57790;51.356;-2.906;2023-02-18T01:29:15;9.10;;;0.90;;
70369;SDS011;57790;51.356;-2.906;2023-02-18T01:32:16;6.17;;;0.77;;
70369;SDS011;57790;51.356;-2.906;2023-02-18T01:35:18;6.90;;;0.80;;
70369;SDS011;57790;51.356;-2.906;2023-02-18T01:38:19;4.90;;;0.70;;
70369;SDS011;57790;51.356;-2.906;2023-02-18T01:41:19;8.60;;;0.97;;
70369;SDS011;57790;51.356;-2.906;2023-02-18T01:44:21;5.82;;;0.82;;
70369;SDS011;57790;51.356;-2.906;2023-02-18T01:47:24;7.73;;;0.80;;
70369;SDS011;57790;51.356;-2.906;2023-02-18T01:50:25;5.83;;;0.70;;
70369;SDS011;57790;51.356;-2.906;2023-02-18T01:53:28;6.20;;;0.70;;
70369;SDS011;57790;51.356;-2.906;2023-02-18T01:56:37;5.55;;;0.60;;
70369;SDS011;57790;51.356;-2.906;2023-02-18T01:59:54;6.88;;;0.82;;
70369;SDS011;57790;51.356;-2.906;2023-02-18T02:02:57;6.60;;;0.70;;
70369;SDS011;57790;51.356;-2.906;2023-02-18T02:05:57;8.00;;;1.03;;
70369;SDS011;57790;51.356;-2.906;2023-02-18T02:08:59;6.40;;;0.70;;
70369;SDS011;57790;51.356;-2.906;2023-02-18T02:26:26;7.07;;;0.82;;
70369;SDS011;57790;51.356;-2.906;2023-02-18T02:36:13;6.60;;;0.60;;
70369;SDS011;57790;51.356;-2.906;2023-02-18T02:46:10;3.67;;;0.60;;
70369;SDS011;57790;51.356;-2.906;2023-02-18T02:52:38;4.70;;;0.60;;
70369;SDS011;57790;51.356;-2.906;2023-02-18T02:55:43;5.30;;;0.60;;
70369;SDS011;57790;51.356;-2.906;2023-02-18T02:58:44;3.05;;;0.60;;
70369;SDS011;57790;51.356;-2.906;2023-02-18T03:12:22;4.78;;;0.52;;
70369;SDS011;57790;51.356;-2.906;2023-02-18T03:15:24;3.30;;;0.45;;
70369;SDS011;57790;51.356;-2.906;2023-02-18T03:18:36;5.95;;;0.52;;
70369;SDS011;57790;51.356;-2.906;2023-02-18T03:21:44;5.05;;;0.85;;
70369;SDS011;57790;51.356;-2.906;2023-02-18T03:24:49;3.73;;;0.70;;
70369;SDS011;57790;51.356;-2.906;2023-02-18T03:28:04;4.75;;;0.80;;
70369;SDS011;57790;51.356;-2.906;2023-02-18T03:31:12;3.92;;;0.65;;
70369;SDS011;57790;51.356;-2.906;2023-02-18T03:34:28;4.70;;;0.50;;
70369;SDS011;57790;51.356;-2.906;2023-02-18T03:37:31;4.88;;;0.52;;
70369;SDS011;57790;51.356;-2.906;2023-02-18T03:40:34;5.30;;;0.83;;
70369;SDS011;57790;51.356;-2.906;2023-02-18T03:43:35;6.80;;;0.73;;
70369;SDS011;57790;51.356;-2.906;2023-02-18T03:46:36;6.00;;;0.90;;
70369;SDS011;57790;51.356;-2.906;2023-02-18T03:49:38;5.10;;;0.80;;
70369;SDS011;57790;51.356;-2.906;2023-02-18T03:52:39;2.87;;;0.50;;
70369;SDS011;57790;51.356;-2.906;2023-02-18T03:55:39;6.93;;;1.07;;
70369;SDS011;57790;51.356;-2.906;2023-02-18T03:58:40;6.00;;;0.60;;
70369;SDS011;57790;51.356;-2.906;2023-02-18T04:01:40;9.27;;;1.00;;
70369;SDS011;57790;51.356;-2.906;2023-02-18T04:04:40;3.33;;;0.53;;
70369;SDS011;57790;51.356;-2.906;2023-02-18T04:07:41;4.65;;;0.63;;
70369;SDS011;57790;51.356;-2.906;2023-02-18T04:10:41;5.03;;;0.50;;
70369;SDS011;57790;51.356;-2.906;2023-02-18T04:13:42;2.77;;;0.60;;
70369;SDS011;57790;51.356;-2.906;2023-02-18T04:16:42;6.13;;;0.60;;
70369;SDS011;57790;51.356;-2.906;2023-02-18T04:19:42;7.33;;;0.70;;
70369;SDS011;57790;51.356;-2.906;2023-02-18T04:22:43;4.07;;;1.20;;
70369;SDS011;57790;51.356;-2.906;2023-02-18T04:25:43;5.40;;;0.70;;
70369;SDS011;57790;51.356;-2.906;2023-02-18T04:28:44;7.27;;;0.87;;
70369;SDS011;57790;51.356;-2.906;2023-02-18T04:31:44;5.17;;;0.60;;
70369;SDS011;57790;51.356;-2.906;2023-02-18T04:34:44;6.50;;;1.00;;
70369;SDS011;57790;51.356;-2.906;2023-02-18T04:37:45;5.22;;;0.77;;
70369;SDS011;57790;51.356;-2.906;2023-02-18T04:40:45;4.83;;;0.50;;
70369;SDS011;57790;51.356;-2.906;2023-02-18T04:43:46;7.67;;;0.87;;
70369;SDS011;57790;51.356;-2.906;2023-02-18T04:46:46;6.10;;;0.70;;
70369;SDS011;57790;51.356;-2.906;2023-02-18T04:49:47;4.47;;;0.80;;
70369;SDS011;57790;51.356;-2.906;2023-02-18T04:52:47;5.73;;;0.70;;
70369;SDS011;57790;51.356;-2.906;2023-02-18T04:55:49;4.27;;;0.60;;
70369;SDS011;57790;51.356;-2.906;2023-02-18T04:58:50;5.50;;;0.60;;
70369;SDS011;57790;51.356;-2.906;2023-02-18T05:01:51;4.47;;;0.70;;
70369;SDS011;57790;51.356;-2.906;2023-02-18T05:04:51;3.90;;;0.70;;
70369;SDS011;57790;51.356;-2.906;2023-02-18T05:07:52;6.10;;;0.67;;
70369;SDS011;57790;51.356;-2.906;2023-02-18T05:10:52;9.77;;;0.70;;
70369;SDS011;57790;51.356;-2.906;2023-02-18T05:13:52;4.73;;;0.57;;
70369;SDS011;57790;51.356;-2.906;2023-02-18T05:16:53;4.37;;;0.90;;
70369;SDS011;57790;51.356;-2.906;2023-02-18T05:19:53;5.67;;;0.57;;
70369;SDS011;57790;51.356;-2.906;2023-02-18T05:22:53;7.68;;;0.90;;
70369;SDS011;57790;51.356;-2.906;2023-02-18T05:25:54;10.33;;;0.80;;
70369;SDS011;57790;51.356;-2.906;2023-02-18T05:28:55;8.63;;;0.80;;
70369;SDS011;57790;51.356;-2.906;2023-02-18T05:31:56;7.53;;;0.98;;
70369;SDS011;57790;51.356;-2.906;2023-02-18T05:34:56;6.23;;;0.93;;
70369;SDS011;57790;51.356;-2.906;2023-02-18T05:37:57;7.40;;;0.90;;
70369;SDS011;57790;51.356;-2.906;2023-02-18T05:40:57;4.05;;;0.50;;
70369;SDS011;57790;51.356;-2.906;2023-02-18T05:43:58;7.13;;;0.73;;
70369;SDS011;57790;51.356;-2.906;2023-02-18T05:47:17;8.57;;;1.02;;
70369;SDS011;57790;51.356;-2.906;2023-02-18T05:50:17;4.80;;;0.70;;
70369;SDS011;57790;51.356;-2.906;2023-02-18T05:53:18;7.37;;;0.80;;
70369;SDS011;57790;51.356;-2.906;2023-02-18T05:56:18;5.00;;;0.57;;
70369;SDS011;57790;51.356;-2.906;2023-02-18T05:59:19;5.20;;;0.70;;
70369;SDS011;57790;51.356;-2.906;2023-02-18T06:02:19;6.43;;;1.03;;
70369;SDS011;57790;51.356;-2.906;2023-02-18T06:05:20;6.87;;;0.87;;
70369;SDS011;57790;51.356;-2.906;2023-02-18T06:08:20;8.27;;;0.90;;
70369;SDS011;57790;51.356;-2.906;2023-02-18T06:11:21;6.13;;;0.70;;
70369;SDS011;57790;51.356;-2.906;2023-02-18T06:14:21;4.80;;;0.70;;
70369;SDS011;57790;51.356;-2.906;2023-02-18T06:17:21;5.97;;;0.63;;
70369;SDS011;57790;51.356;-2.906;2023-02-18T06:20:22;4.07;;;0.70;;
70369;SDS011;57790;51.356;-2.906;2023-02-18T06:23:22;6.32;;;1.00;;
70369;SDS011;57790;51.356;-2.906;2023-02-18T06:26:23;7.30;;;0.70;;
70369;SDS011;57790;51.356;-2.906;2023-02-18T06:29:23;5.23;;;0.80;;
70369;SDS011;57790;51.356;-2.906;2023-02-18T06:32:24;6.35;;;0.90;;
70369;SDS011;57790;51.356;-2.906;2023-02-18T06:35:24;5.57;;;0.60;;
70369;SDS011;57790;51.356;-2.906;2023-02-18T06:38:25;4.50;;;0.70;;
70369;SDS011;57790;51.356;-2.906;2023-02-18T06:41:26;6.70;;;0.80;;
70369;SDS011;57790;51.356;-2.906;2023-02-18T06:44:26;6.67;;;1.13;;
70369;SDS011;57790;51.356;-2.906;2023-02-18T06:47:26;5.53;;;0.70;;
70369;SDS011;57790;51.356;-2.906;2023-02-18T06:50:27;6.90;;;0.60;;
70369;SDS011;57790;51.356;-2.906;2023-02-18T06:53:27;7.17;;;1.00;;
70369;SDS011;57790;51.356;-2.906;2023-02-18T06:56:28;7.45;;;0.88;;
70369;SDS011;57790;51.356;-2.906;2023-02-18T06:59:28;12.23;;;0.80;;
70369;SDS011;57790;51.356;-2.906;2023-02-18T07:02:28;7.13;;;0.77;;
70369;SDS011;57790;51.356;-2.906;2023-02-18T07:05:29;7.67;;;0.70;;
70369;SDS011;57790;51.356;-2.906;2023-02-18T07:08:30;4.63;;;0.70;;
70369;SDS011;57790;51.356;-2.906;2023-02-18T07:11:32;4.00;;;0.50;;
70369;SDS011;57790;51.356;-2.906;2023-02-18T07:14:32;4.93;;;0.47;;
70369;SDS011;57790;51.356;-2.906;2023-02-18T07:17:33;5.20;;;0.67;;
70369;SDS011;57790;51.356;-2.906;2023-02-18T07:20:33;6.23;;;0.80;;
70369;SDS011;57790;51.356;-2.906;2023-02-18T07:23:33;5.83;;;0.80;;
70369;SDS011;57790;51.356;-2.906;2023-02-18T07:26:34;4.65;;;0.55;;
70369;SDS011;57790;51.356;-2.906;2023-02-18T07:29:34;4.90;;;0.77;;
70369;SDS011;57790;51.356;-2.906;2023-02-18T07:32:35;4.80;;;0.77;;
70369;SDS011;57790;51.356;-2.906;2023-02-18T07:35:35;4.53;;;0.60;;
70369;SDS011;57790;51.356;-2.906;2023-02-18T07:38:36;6.07;;;0.73;;
70369;SDS011;57790;51.356;-2.906;2023-02-18T07:41:36;6.38;;;0.98;;
70369;SDS011;57790;51.356;-2.906;2023-02-18T07:44:37;5.87;;;0.70;;
70369;SDS011;57790;51.356;-2.906;2023-02-18T07:47:38;6.15;;;0.90;;
70369;SDS011;57790;51.356;-2.906;2023-02-18T07:50:42;9.77;;;1.03;;
70369;SDS011;57790;51.356;-2.906;2023-02-18T07:53:44;7.93;;;1.00;;
70369;SDS011;57790;51.356;-2.906;2023-02-18T07:56:44;7.27;;;0.90;;
70369;SDS011;57790;51.356;-2.906;2023-02-18T07:59:45;5.72;;;0.70;;
70369;SDS011;57790;51.356;-2.906;2023-02-18T08:02:45;5.17;;;0.80;;
70369;SDS011;57790;51.356;-2.906;2023-02-18T08:05:49;4.77;;;0.80;;
70369;SDS011;57790;51.356;-2.906;2023-02-18T08:08:50;6.43;;;0.90;;
70369;SDS011;57790;51.356;-2.906;2023-02-18T08:11:51;8.33;;;0.70;;
70369;SDS011;57790;51.356;-2.906;2023-02-18T08:14:51;7.37;;;0.80;;
70369;SDS011;57790;51.356;-2.906;2023-02-18T08:17:51;5.47;;;1.20;;
70369;SDS011;57790;51.356;-2.906;2023-02-18T08:20:52;6.78;;;0.77;;
70369;SDS011;57790;51.356;-2.906;2023-02-18T08:23:53;7.20;;;0.83;;
70369;SDS011;57790;51.356;-2.906;2023-02-18T08:26:53;5.33;;;0.93;;
70369;SDS011;57790;51.356;-2.906;2023-02-18T08:29:54;5.53;;;0.80;;
70369;SDS011;57790;51.356;-2.906;2023-02-18T08:32:54;4.73;;;0.80;;
70369;SDS011;57790;51.356;-2.906;2023-02-18T08:35:55;6.97;;;1.00;;
70369;SDS011;57790;51.356;-2.906;2023-02-18T08:38:56;7.10;;;0.80;;
70369;SDS011;57790;51.356;-2.906;2023-02-18T08:41:57;7.97;;;1.05;;
70369;SDS011;57790;51.356;-2.906;2023-02-18T08:44:57;10.70;;;1.27;;
70369;SDS011;57790;51.356;-2.906;2023-02-18T08:47:58;8.80;;;1.10;;
70369;SDS011;57790;51.356;-2.906;2023-02-18T08:50:58;8.73;;;1.15;;
70369;SDS011;57790;51.356;-2.906;2023-02-18T08:54:15;6.10;;;0.80;;
70369;SDS011;57790;51.356;-2.906;2023-02-18T08:57:16;7.53;;;1.10;;
70369;SDS011;57790;51.356;-2.906;2023-02-18T09:00:17;6.53;;;1.00;;
70369;SDS011;57790;51.356;-2.906;2023-02-18T09:03:18;7.47;;;1.37;;
70369;SDS011;57790;51.356;-2.906;2023-02-18T09:06:18;5.87;;;0.80;;
70369;SDS011;57790;51.356;-2.906;2023-02-18T09:09:19;4.80;;;0.70;;
70369;SDS011;57790;51.356;-2.906;2023-02-18T09:12:19;5.93;;;0.87;;
70369;SDS011;57790;51.356;-2.906;2023-02-18T09:15:19;4.57;;;0.80;;
70369;SDS011;57790;51.356;-2.906;2023-02-18T09:18:20;6.88;;;0.88;;
70369;SDS011;57790;51.356;-2.906;2023-02-18T09:21:20;4.50;;;0.70;;
70369;SDS011;57790;51.356;-2.906;2023-02-18T09:24:23;6.70;;;0.82;;
70369;SDS011;57790;51.356;-2.906;2023-02-18T09:27:24;5.17;;;0.80;;
70369;SDS011;57790;51.356;-2.906;2023-02-18T09:30:27;8.57;;;1.17;;
70369;SDS011;57790;51.356;-2.906;2023-02-18T09:33:27;6.85;;;1.00;;
70369;SDS011;57790;51.356;-2.906;2023-02-18T09:36:28;5.20;;;0.60;;
70369;SDS011;57790;51.356;-2.906;2023-02-18T09:39:29;9.80;;;1.05;;
70369;SDS011;57790;51.356;-2.906;2023-02-18T09:42:30;5.93;;;0.85;;
70369;SDS011;57790;51.356;-2.906;2023-02-18T09:45:33;6.40;;;0.80;;
70369;SDS011;57790;51.356;-2.906;2023-02-18T09:48:34;8.57;;;1.00;;
70369;SDS011;57790;51.356;-2.906;2023-02-18T09:51:36;8.15;;;1.05;;
70369;SDS011;57790;51.356;-2.906;2023-02-18T09:54:37;7.90;;;1.00;;
70369;SDS011;57790;51.356;-2.906;2023-02-18T09:57:42;8.23;;;1.15;;
70369;SDS011;57790;51.356;-2.906;2023-02-18T10:00:50;9.15;;;0.93;;
70369;SDS011;57790;51.356;-2.906;2023-02-18T10:03:53;5.43;;;0.77;;
70369;SDS011;57790;51.356;-2.906;2023-02-18T10:06:57;7.50;;;1.40;;
70369;SDS011;57790;51.356;-2.906;2023-02-18T10:10:00;5.55;;;0.95;;
70369;SDS011;57790;51.356;-2.906;2023-02-18T10:13:18;5.80;;;0.68;;
70369;SDS011;57790;51.356;-2.906;2023-02-18T10:16:21;5.57;;;0.70;;
70369;SDS011;57790;51.356;-2.906;2023-02-18T10:19:28;7.93;;;0.70;;
70369;SDS011;57790;51.356;-2.906;2023-02-18T10:22:32;8.10;;;0.88;;
70369;SDS011;57790;51.356;-2.906;2023-02-18T10:25:42;8.53;;;1.33;;
70369;SDS011;57790;51.356;-2.906;2023-02-18T10:28:45;12.40;;;1.48;;
70369;SDS011;57790;51.356;-2.906;2023-02-18T10:32:06;10.30;;;1.33;;
70369;SDS011;57790;51.356;-2.906;2023-02-18T10:35:21;8.95;;;0.88;;
70369;SDS011;57790;51.356;-2.906;2023-02-18T10:42:04;8.60;;;0.90;;
70369;SDS011;57790;51.356;-2.906;2023-02-18T10:51:44;10.60;;;1.25;;
70369;SDS011;57790;51.356;-2.906;2023-02-18T10:54:57;5.95;;;0.93;;
70369;SDS011;57790;51.356;-2.906;2023-02-18T11:01:30;11.00;;;1.40;;
70369;SDS011;57790;51.356;-2.906;2023-02-18T11:04:35;7.63;;;1.20;;
70369;SDS011;57790;51.356;-2.906;2023-02-18T11:07:38;8.07;;;0.93;;
70369;SDS011;57790;51.356;-2.906;2023-02-18T11:10:40;7.23;;;1.00;;
70369;SDS011;57790;51.356;-2.906;2023-02-18T11:13:42;6.05;;;1.10;;
70369;SDS011;57790;51.356;-2.906;2023-02-18T11:16:44;6.83;;;1.00;;
70369;SDS011;57790;51.356;-2.906;2023-02-18T11:19:53;9.00;;;1.10;;
70369;SDS011;57790;51.356;-2.906;2023-02-18T11:26:05;9.57;;;1.45;;
70369;SDS011;57790;51.356;-2.906;2023-02-18T11:32:25;8.70;;;1.20;;
70369;SDS011;57790;51.356;-2.906;2023-02-18T11:35:27;9.82;;;1.10;;
70369;SDS011;57790;51.356;-2.906;2023-02-18T11:38:34;12.10;;;1.08;;
70369;SDS011;57790;51.356;-2.906;2023-02-18T11:41:38;6.82;;;0.80;;
70369;SDS011;57790;51.356;-2.906;2023-02-18T11:44:49;8.33;;;0.93;;
70369;SDS011;57790;51.356;-2.906;2023-02-18T11:48:05;6.85;;;1.05;;
70369;SDS011;57790;51.356;-2.906;2023-02-18T11:54:28;9.05;;;1.05;;
70369;SDS011;57790;51.356;-2.906;2023-02-18T11:57:31;5.25;;;0.95;;
70369;SDS011;57790;51.356;-2.906;2023-02-18T12:03:47;5.40;;;1.17;;
70369;SDS011;57790;51.356;-2.906;2023-02-18T12:10:12;12.38;;;1.40;;
70369;SDS011;57790;51.356;-2.906;2023-02-18T12:13:24;4.60;;;0.73;;
70369;SDS011;57790;51.356;-2.906;2023-02-18T12:23:09;9.23;;;1.10;;
70369;SDS011;57790;51.356;-2.906;2023-02-18T12:32:38;7.13;;;0.70;;
70369;SDS011;57790;51.356;-2.906;2023-02-18T13:15:24;6.72;;;0.85;;
70369;SDS011;57790;51.356;-2.906;2023-02-18T13:18:34;5.03;;;0.80;;
70369;SDS011;57790;51.356;-2.906;2023-02-18T13:21:38;7.15;;;0.98;;
70369;SDS011;57790;51.356;-2.906;2023-02-18T13:24:42;7.78;;;0.90;;
70369;SDS011;57790;51.356;-2.906;2023-02-18T13:31:01;5.83;;;1.10;;
70369;SDS011;57790;51.356;-2.906;2023-02-18T13:34:06;4.13;;;0.90;;
70369;SDS011;57790;51.356;-2.906;2023-02-18T13:37:15;4.18;;;0.90;;
70369;SDS011;57790;51.356;-2.906;2023-02-18T13:40:18;8.77;;;1.20;;
70369;SDS011;57790;51.356;-2.906;2023-02-18T13:43:34;4.05;;;0.70;;
70369;SDS011;57790;51.356;-2.906;2023-02-18T13:46:46;4.45;;;0.73;;
70369;SDS011;57790;51.356;-2.906;2023-02-18T13:49:47;6.27;;;0.83;;
70369;SDS011;57790;51.356;-2.906;2023-02-18T13:52:48;6.13;;;1.00;;
70369;SDS011;57790;51.356;-2.906;2023-02-18T13:59:07;5.20;;;0.75;;
70369;SDS011;57790;51.356;-2.906;2023-02-18T14:05:20;7.70;;;0.82;;
70369;SDS011;57790;51.356;-2.906;2023-02-18T14:08:31;3.47;;;0.60;;
70369;SDS011;57790;51.356;-2.906;2023-02-18T14:11:45;6.33;;;1.00;;
70369;SDS011;57790;51.356;-2.906;2023-02-18T14:14:57;9.40;;;1.00;;
70369;SDS011;57790;51.356;-2.906;2023-02-18T14:24:14;6.43;;;0.80;;
70369;SDS011;57790;51.356;-2.906;2023-02-18T14:27:50;5.40;;;0.85;;
70369;SDS011;57790;51.356;-2.906;2023-02-18T14:30:52;5.43;;;0.97;;
70369;SDS011;57790;51.356;-2.906;2023-02-18T14:37:18;4.07;;;0.70;;
70369;SDS011;57790;51.356;-2.906;2023-02-18T14:40:44;5.77;;;0.60;;
70369;SDS011;57790;51.356;-2.906;2023-02-18T14:50:49;4.72;;;0.77;;
70369;SDS011;57790;51.356;-2.906;2023-02-18T14:53:51;6.40;;;0.90;;
70369;SDS011;57790;51.356;-2.906;2023-02-18T14:56:59;4.93;;;0.77;;
70369;SDS011;57790;51.356;-2.906;2023-02-18T15:00:04;5.43;;;0.80;;
70369;SDS011;57790;51.356;-2.906;2023-02-18T15:03:16;6.63;;;0.87;;
70369;SDS011;57790;51.356;-2.906;2023-02-18T15:06:25;5.13;;;0.70;;
70369;SDS011;57790;51.356;-2.906;2023-02-18T15:09:27;5.95;;;0.93;;
70369;SDS011;57790;51.356;-2.906;2023-02-18T15:12:28;5.95;;;0.70;;
70369;SDS011;57790;51.356;-2.906;2023-02-18T15:15:29;6.17;;;1.10;;
70369;SDS011;57790;51.356;-2.906;2023-02-18T15:18:42;6.97;;;0.70;;
70369;SDS011;57790;51.356;-2.906;2023-02-18T15:21:48;7.57;;;0.98;;
70369;SDS011;57790;51.356;-2.906;2023-02-18T15:24:51;6.03;;;0.80;;
70369;SDS011;57790;51.356;-2.906;2023-02-18T15:27:54;7.65;;;1.10;;
70369;SDS011;57790;51.356;-2.906;2023-02-18T15:30:55;4.97;;;0.80;;
70369;SDS011;57790;51.356;-2.906;2023-02-18T15:33:59;7.80;;;1.25;;
70369;SDS011;57790;51.356;-2.906;2023-02-18T15:37:00;9.00;;;1.10;;
70369;SDS011;57790;51.356;-2.906;2023-02-18T15:40:02;5.20;;;1.00;;
70369;SDS011;57790;51.356;-2.906;2023-02-18T15:43:03;10.77;;;1.17;;
70369;SDS011;57790;51.356;-2.906;2023-02-18T15:46:12;6.07;;;1.03;;
70369;SDS011;57790;51.356;-2.906;2023-02-18T15:49:14;9.02;;;1.30;;
70369;SDS011;57790;51.356;-2.906;2023-02-18T15:52:32;7.53;;;1.17;;
70369;SDS011;57790;51.356;-2.906;2023-02-18T15:55:38;8.10;;;1.02;;
70369;SDS011;57790;51.356;-2.906;2023-02-18T15:58:40;8.10;;;1.20;;
70369;SDS011;57790;51.356;-2.906;2023-02-18T16:01:41;6.97;;;1.10;;
70369;SDS011;57790;51.356;-2.906;2023-02-18T16:04:44;8.95;;;1.33;;
70369;SDS011;57790;51.356;-2.906;2023-02-18T16:07:55;9.47;;;0.97;;
70369;SDS011;57790;51.356;-2.906;2023-02-18T16:11:05;10.52;;;1.30;;
70369;SDS011;57790;51.356;-2.906;2023-02-18T16:17:27;8.63;;;1.02;;
70369;SDS011;57790;51.356;-2.906;2023-02-18T16:20:32;10.18;;;1.42;;
70369;SDS011;57790;51.356;-2.906;2023-02-18T16:23:39;10.13;;;1.20;;
70369;SDS011;57790;51.356;-2.906;2023-02-18T16:26:42;8.82;;;1.35;;
70369;SDS011;57790;51.356;-2.906;2023-02-18T16:29:48;7.95;;;1.02;;
70369;SDS011;57790;51.356;-2.906;2023-02-18T16:32:52;10.40;;;1.30;;
70369;SDS011;57790;51.356;-2.906;2023-02-18T16:35:53;9.17;;;1.20;;
70369;SDS011;57790;51.356;-2.906;2023-02-18T16:38:56;10.87;;;1.53;;
70369;SDS011;57790;51.356;-2.906;2023-02-18T16:41:57;10.50;;;1.08;;
70369;SDS011;57790;51.356;-2.906;2023-02-18T16:44:58;8.57;;;1.27;;
70369;SDS011;57790;51.356;-2.906;2023-02-18T16:47:58;7.68;;;1.20;;
70369;SDS011;57790;51.356;-2.906;2023-02-18T16:50:59;11.60;;;1.30;;
70369;SDS011;57790;51.356;-2.906;2023-02-18T16:54:03;12.02;;;1.52;;
70369;SDS011;57790;51.356;-2.906;2023-02-18T16:57:04;10.33;;;1.60;;
70369;SDS011;57790;51.356;-2.906;2023-02-18T17:00:04;12.43;;;1.83;;
70369;SDS011;57790;51.356;-2.906;2023-02-18T17:03:05;10.60;;;1.60;;
70369;SDS011;57790;51.356;-2.906;2023-02-18T17:06:06;11.60;;;1.50;;
70369;SDS011;57790;51.356;-2.906;2023-02-18T17:09:24;11.98;;;1.45;;
70369;SDS011;57790;51.356;-2.906;2023-02-18T17:12:26;11.07;;;1.23;;
70369;SDS011;57790;51.356;-2.906;2023-02-18T17:15:31;10.98;;;1.63;;
70369;SDS011;57790;51.356;-2.906;2023-02-18T17:18:34;14.13;;;1.73;;
70369;SDS011;57790;51.356;-2.906;2023-02-18T17:21:34;13.68;;;1.60;;
70369;SDS011;57790;51.356;-2.906;2023-02-18T17:24:35;13.57;;;1.60;;
70369;SDS011;57790;51.356;-2.906;2023-02-18T17:27:35;14.20;;;1.80;;
70369;SDS011;57790;51.356;-2.906;2023-02-18T17:30:37;11.80;;;1.63;;
70369;SDS011;57790;51.356;-2.906;2023-02-18T17:33:39;12.13;;;2.72;;
70369;SDS011;57790;51.356;-2.906;2023-02-18T17:36:40;14.40;;;1.50;;
70369;SDS011;57790;51.356;-2.906;2023-02-18T17:39:44;12.88;;;2.20;;
70369;SDS011;57790;51.356;-2.906;2023-02-18T17:42:44;13.43;;;1.97;;
70369;SDS011;57790;51.356;-2.906;2023-02-18T17:45:48;13.93;;;2.10;;
70369;SDS011;57790;51.356;-2.906;2023-02-18T17:48:53;17.83;;;2.20;;
70369;SDS011;57790;51.356;-2.906;2023-02-18T17:51:53;12.90;;;1.83;;
70369;SDS011;57790;51.356;-2.906;2023-02-18T17:54:54;14.00;;;1.75;;
70369;SDS011;57790;51.356;-2.906;2023-02-18T17:57:54;11.03;;;1.50;;
70369;SDS011;57790;51.356;-2.906;2023-02-18T18:00:56;11.85;;;1.95;;
70369;SDS011;57790;51.356;-2.906;2023-02-18T18:03:56;13.93;;;1.47;;
70369;SDS011;57790;51.356;-2.906;2023-02-18T18:06:57;15.50;;;1.80;;
70369;SDS011;57790;51.356;-2.906;2023-02-18T18:09:57;11.60;;;1.80;;
70369;SDS011;57790;51.356;-2.906;2023-02-18T18:12:58;13.40;;;1.60;;
70369;SDS011;57790;51.356;-2.906;2023-02-18T18:16:04;11.50;;;1.50;;
70369;SDS011;57790;51.356;-2.906;2023-02-18T18:19:04;13.83;;;1.60;;
70369;SDS011;57790;51.356;-2.906;2023-02-18T18:22:05;12.67;;;1.87;;
70369;SDS011;57790;51.356;-2.906;2023-02-18T18:25:53;15.15;;;1.80;;
70369;SDS011;57790;51.356;-2.906;2023-02-18T18:28:38;13.95;;;1.73;;
70369;SDS011;57790;51.356;-2.906;2023-02-18T18:31:38;12.17;;;1.60;;
70369;SDS011;57790;51.356;-2.906;2023-02-18T18:34:38;15.30;;;1.60;;
70369;SDS011;57790;51.356;-2.906;2023-02-18T18:37:39;16.23;;;2.53;;
70369;SDS011;57790;51.356;-2.906;2023-02-18T18:40:39;10.40;;;1.50;;
70369;SDS011;57790;51.356;-2.906;2023-02-18T18:43:40;12.03;;;1.40;;
70369;SDS011;57790;51.356;-2.906;2023-02-18T18:46:40;12.00;;;1.63;;
70369;SDS011;57790;51.356;-2.906;2023-02-18T18:49:41;12.40;;;1.30;;
70369;SDS011;57790;51.356;-2.906;2023-02-18T18:52:41;11.03;;;1.80;;
70369;SDS011;57790;51.356;-2.906;2023-02-18T18:55:42;17.63;;;1.90;;
70369;SDS011;57790;51.356;-2.906;2023-02-18T18:58:43;10.90;;;1.50;;
70369;SDS011;57790;51.356;-2.906;2023-02-18T19:01:43;14.50;;;1.90;;
70369;SDS011;57790;51.356;-2.906;2023-02-18T19:04:44;13.77;;;1.63;;
70369;SDS011;57790;51.356;-2.906;2023-02-18T19:07:44;10.63;;;1.60;;
70369;SDS011;57790;51.356;-2.906;2023-02-18T19:11:03;14.30;;;1.70;;
70369;SDS011;57790;51.356;-2.906;2023-02-18T19:14:04;13.52;;;1.50;;
70369;SDS011;57790;51.356;-2.906;2023-02-18T19:17:04;15.83;;;1.80;;
70369;SDS011;57790;51.356;-2.906;2023-02-18T19:20:05;14.45;;;1.30;;
70369;SDS011;57790;51.356;-2.906;2023-02-18T19:23:07;14.53;;;1.87;;
70369;SDS011;57790;51.356;-2.906;2023-02-18T19:26:07;13.25;;;1.55;;
70369;SDS011;57790;51.356;-2.906;2023-02-18T19:29:08;16.10;;;1.67;;
70369;SDS011;57790;51.356;-2.906;2023-02-18T19:32:08;14.80;;;2.63;;
70369;SDS011;57790;51.356;-2.906;2023-02-18T19:35:08;14.83;;;2.40;;
70369;SDS011;57790;51.356;-2.906;2023-02-18T19:38:11;12.70;;;1.65;;
70369;SDS011;57790;51.356;-2.906;2023-02-18T19:41:14;13.40;;;2.10;;
70369;SDS011;57790;51.356;-2.906;2023-02-18T19:44:18;17.13;;;2.47;;
70369;SDS011;57790;51.356;-2.906;2023-02-18T19:47:18;16.37;;;2.60;;
70369;SDS011;57790;51.356;-2.906;2023-02-18T19:50:19;18.73;;;1.97;;
70369;SDS011;57790;51.356;-2.906;2023-02-18T19:53:20;16.57;;;2.20;;
70369;SDS011;57790;51.356;-2.906;2023-02-18T19:56:20;13.50;;;2.03;;
70369;SDS011;57790;51.356;-2.906;2023-02-18T19:59:20;16.70;;;1.97;;
70369;SDS011;57790;51.356;-2.906;2023-02-18T20:02:22;19.37;;;2.53;;
70369;SDS011;57790;51.356;-2.906;2023-02-18T20:05:24;13.27;;;1.95;;
70369;SDS011;57790;51.356;-2.906;2023-02-18T20:08:24;14.97;;;2.30;;
70369;SDS011;57790;51.356;-2.906;2023-02-18T20:11:25;15.90;;;2.20;;
70369;SDS011;57790;51.356;-2.906;2023-02-18T20:14:25;16.53;;;2.27;;
70369;SDS011;57790;51.356;-2.906;2023-02-18T20:17:28;20.92;;;2.30;;
70369;SDS011;57790;51.356;-2.906;2023-02-18T20:20:28;14.13;;;2.27;;
70369;SDS011;57790;51.356;-2.906;2023-02-18T20:23:29;16.02;;;2.05;;
70369;SDS011;57790;51.356;-2.906;2023-02-18T20:26:29;19.87;;;2.30;;
70369;SDS011;57790;51.356;-2.906;2023-02-18T20:29:29;18.17;;;2.23;;
70369;SDS011;57790;51.356;-2.906;2023-02-18T20:32:35;14.00;;;1.70;;
70369;SDS011;57790;51.356;-2.906;2023-02-18T20:35:36;18.23;;;3.07;;